createdAt,value
2018-12-05T00:05:59.345Z,6.30
2018-12-05T00:12:02.920Z,6.30
2018-12-05T00:18:06.340Z,6.30
2018-12-05T00:24:10.097Z,6.30
2018-12-05T00:30:13.541Z,6.30
2018-12-05T00:36:16.981Z,6.20
2018-12-05T00:42:20.429Z,6.10
2018-12-05T00:48:23.862Z,6.10
2018-12-05T00:54:27.302Z,6.10
2018-12-05T01:00:30.974Z,6.20
2018-12-05T01:06:34.598Z,6.10
2018-12-05T01:12:38.068Z,6.20
2018-12-05T01:18:41.614Z,6.20
2018-12-05T01:24:45.048Z,6.20
2018-12-05T01:30:48.522Z,6.30
2018-12-05T01:36:51.982Z,6.30
2018-12-05T01:42:55.500Z,6.20
2018-12-05T01:48:59.000Z,6.20
2018-12-05T01:55:02.962Z,6.20
2018-12-05T02:01:06.464Z,6.20
2018-12-05T02:07:09.928Z,6.20
2018-12-05T02:13:13.370Z,6.20
2018-12-05T02:19:16.957Z,6.20
2018-12-05T02:25:20.596Z,6.20
2018-12-05T02:31:24.171Z,6.30
2018-12-05T02:37:27.696Z,6.30
2018-12-05T02:43:31.112Z,6.30
2018-12-05T02:49:34.568Z,6.30
2018-12-05T02:55:37.983Z,6.30
2018-12-05T03:01:41.451Z,6.40
2018-12-05T03:07:45.006Z,6.40
2018-12-05T03:13:49.287Z,6.40
2018-12-05T03:19:52.881Z,6.40
2018-12-05T03:25:56.337Z,6.40
2018-12-05T03:31:59.759Z,6.30
2018-12-05T03:38:03.231Z,6.40
2018-12-05T03:44:06.630Z,6.40
2018-12-05T03:50:10.103Z,6.40
2018-12-05T03:56:13.525Z,6.40
2018-12-05T04:02:17.527Z,6.40
2018-12-05T04:08:24.066Z,6.50
2018-12-05T04:14:28.822Z,6.50
2018-12-05T04:20:32.289Z,6.50
2018-12-05T04:26:35.730Z,6.50
2018-12-05T04:32:39.171Z,6.60
2018-12-05T04:38:42.609Z,6.60
2018-12-05T04:44:46.179Z,6.50
2018-12-05T04:50:49.726Z,6.50
2018-12-05T04:56:53.544Z,6.50
2018-12-05T05:02:56.961Z,6.50
2018-12-05T05:09:00.383Z,6.40
2018-12-05T05:15:04.271Z,6.40
2018-12-05T05:21:07.723Z,6.50
2018-12-05T05:27:11.964Z,6.40
2018-12-05T05:33:15.772Z,6.40
2018-12-05T05:39:19.215Z,6.40
2018-12-05T05:45:22.661Z,6.40
2018-12-05T05:51:26.660Z,6.50
2018-12-05T05:57:30.154Z,6.50
2018-12-05T06:03:33.884Z,6.50
2018-12-05T06:09:37.322Z,6.50
2018-12-05T06:15:40.788Z,6.50
2018-12-05T06:21:44.251Z,6.50
2018-12-05T06:27:47.715Z,6.50
2018-12-05T06:33:51.132Z,6.50
2018-12-05T06:39:54.950Z,6.60
2018-12-05T06:45:58.414Z,6.60
2018-12-05T06:52:01.872Z,6.70
2018-12-05T06:58:05.540Z,6.80
2018-12-05T07:04:09.209Z,6.80
2018-12-05T07:10:12.896Z,7.00
2018-12-05T07:16:17.332Z,7.00
2018-12-05T07:22:20.804Z,7.00
2018-12-05T07:28:24.580Z,7.00
2018-12-05T07:34:28.235Z,7.10
2018-12-05T07:40:31.713Z,7.30
2018-12-05T07:46:35.155Z,7.10
2018-12-05T07:52:38.652Z,7.20
2018-12-05T07:58:42.201Z,7.50
2018-12-05T08:04:45.617Z,7.30
2018-12-05T08:10:49.139Z,7.40
2018-12-05T08:16:52.585Z,7.50
2018-12-05T08:22:56.042Z,7.30
2018-12-05T08:28:59.508Z,7.50
2018-12-05T08:35:03.040Z,7.60
2018-12-05T08:41:06.549Z,7.60
2018-12-05T08:47:10.828Z,7.60
2018-12-05T08:53:14.316Z,7.60
2018-12-05T08:59:17.783Z,7.60
2018-12-05T09:05:21.194Z,8.50
2018-12-05T09:11:24.652Z,8.50
2018-12-05T09:17:28.108Z,8.20
2018-12-05T09:23:32.314Z,8.50
2018-12-05T09:29:35.775Z,8.20
2018-12-05T09:35:39.231Z,8.60
2018-12-05T09:41:42.735Z,9.70
2018-12-05T09:47:46.219Z,10.40
2018-12-05T09:53:49.627Z,9.50
2018-12-05T09:59:53.137Z,10.20
2018-12-05T10:05:56.589Z,10.30
2018-12-05T10:12:00.005Z,10.40
2018-12-05T10:18:03.533Z,11.80
2018-12-05T10:24:07.165Z,10.60
2018-12-05T10:30:10.826Z,10.50
2018-12-05T10:36:14.309Z,10.50
2018-12-05T10:42:17.768Z,11.30
2018-12-05T10:48:21.232Z,11.20
2018-12-05T10:54:24.677Z,12.00
2018-12-05T11:00:40.276Z,11.20
2018-12-05T11:06:49.880Z,11.70
2018-12-05T11:12:58.659Z,11.40
2018-12-05T11:19:07.583Z,13.00
2018-12-05T11:25:16.361Z,13.10
2018-12-05T11:31:20.173Z,13.00
2018-12-05T11:37:23.745Z,13.80
2018-12-05T11:43:27.391Z,13.40
2018-12-05T11:49:30.959Z,13.30
2018-12-05T11:55:34.431Z,13.90
2018-12-05T12:01:37.885Z,13.80
2018-12-05T12:07:41.332Z,13.60
2018-12-05T12:13:44.807Z,14.50
2018-12-05T12:19:48.334Z,14.70
2018-12-05T12:25:51.785Z,14.50
2018-12-05T12:31:55.237Z,14.80
2018-12-05T12:37:58.681Z,14.40
2018-12-05T12:44:02.424Z,14.80
2018-12-05T12:50:06.554Z,12.70
2018-12-05T12:56:10.049Z,13.20
2018-12-05T13:02:13.502Z,14.60
2018-12-05T13:08:17.630Z,14.30
2018-12-05T13:14:21.098Z,15.10
2018-12-05T13:20:24.587Z,14.70
2018-12-05T13:26:28.170Z,15.50
2018-12-05T13:32:31.635Z,15.60
2018-12-05T13:38:35.144Z,15.60
2018-12-05T13:44:38.591Z,15.80
2018-12-05T13:50:42.185Z,14.90
2018-12-05T13:56:45.617Z,15.60
2018-12-05T14:02:49.076Z,15.20
2018-12-05T14:08:52.512Z,15.50
2018-12-05T14:14:56.260Z,14.80
2018-12-05T14:21:00.079Z,15.40
2018-12-05T14:27:03.495Z,15.50
2018-12-05T14:33:07.001Z,15.10
2018-12-05T14:39:10.440Z,15.00
2018-12-05T14:45:13.873Z,14.20
2018-12-05T14:51:17.313Z,14.30
2018-12-05T14:57:21.280Z,14.10
2018-12-05T15:03:24.904Z,13.50
2018-12-05T15:09:29.007Z,13.10
2018-12-05T15:15:32.428Z,15.00
2018-12-05T15:21:35.965Z,14.40
2018-12-05T15:27:39.563Z,13.70
2018-12-05T15:33:43.162Z,15.20
2018-12-05T15:39:46.746Z,13.70
2018-12-05T15:45:50.176Z,14.40
2018-12-05T15:51:53.650Z,15.40
2018-12-05T15:57:57.170Z,15.00
2018-12-05T16:04:00.630Z,14.60
2018-12-05T16:10:05.664Z,15.50
2018-12-05T16:16:09.189Z,15.30
2018-12-05T16:22:12.628Z,15.10
2018-12-05T16:28:16.100Z,13.80
2018-12-05T16:34:19.606Z,13.70
2018-12-05T16:40:23.073Z,14.30
2018-12-05T16:46:26.597Z,14.20
2018-12-05T16:52:30.098Z,14.40
2018-12-05T17:03:05.310Z,14.80
2018-12-05T17:09:12.588Z,15.60
2018-12-05T17:15:16.101Z,15.80
2018-12-05T17:21:19.600Z,14.50
2018-12-05T17:27:23.236Z,14.10
2018-12-05T17:33:26.723Z,14.50
2018-12-05T17:39:30.167Z,15.80
2018-12-05T17:45:33.744Z,14.90
2018-12-05T17:51:37.232Z,12.60
2018-12-05T17:57:40.692Z,13.20
2018-12-05T18:03:44.154Z,12.70
2018-12-05T18:09:47.564Z,12.60
2018-12-05T18:15:51.005Z,13.10
2018-12-05T18:21:54.500Z,13.50
2018-12-05T18:27:57.968Z,13.70
2018-12-05T18:34:01.487Z,13.00
2018-12-05T18:40:05.377Z,12.50
2018-12-05T18:46:15.687Z,12.40
2018-12-05T18:52:19.333Z,12.40
2018-12-05T18:58:22.873Z,12.40
2018-12-05T19:04:26.346Z,12.30
2018-12-05T19:10:30.206Z,13.10
2018-12-05T19:16:33.706Z,12.90
2018-12-05T19:22:37.311Z,13.30
2018-12-05T19:28:41.008Z,14.00
2018-12-05T19:34:44.434Z,13.00
2018-12-05T19:40:47.942Z,12.30
2018-12-05T19:46:51.392Z,12.60
2018-12-05T19:52:54.822Z,12.60
2018-12-05T19:58:58.312Z,12.90
2018-12-05T20:05:01.803Z,12.90
2018-12-05T20:11:05.383Z,12.70
2018-12-05T20:17:09.086Z,12.40
2018-12-05T20:23:12.512Z,13.00
2018-12-05T20:29:16.010Z,12.80
2018-12-05T20:35:19.476Z,12.50
2018-12-05T20:41:23.193Z,12.90
2018-12-05T20:47:26.861Z,12.50
2018-12-05T20:53:30.436Z,12.40
2018-12-05T20:59:33.917Z,12.50
2018-12-05T21:05:37.545Z,12.90
2018-12-05T21:11:41.002Z,12.50
2018-12-05T21:17:44.492Z,12.50
2018-12-05T21:23:47.982Z,12.00
2018-12-05T21:29:51.431Z,12.50
2018-12-05T21:35:54.910Z,13.30
2018-12-05T21:41:58.684Z,12.90
2018-12-05T21:48:02.142Z,12.00
2018-12-05T21:54:05.859Z,11.90
2018-12-05T22:00:11.763Z,13.00
2018-12-05T22:06:15.745Z,12.60
2018-12-05T22:12:19.277Z,13.10
2018-12-05T22:18:22.737Z,12.40
2018-12-05T22:24:26.577Z,13.60
2018-12-05T22:30:30.079Z,13.10
2018-12-05T22:36:33.543Z,13.00
2018-12-05T22:42:38.672Z,13.60
2018-12-05T22:48:42.240Z,13.30
2018-12-05T22:54:45.709Z,13.20
2018-12-05T23:00:51.986Z,12.90
2018-12-05T23:06:55.502Z,13.20
2018-12-05T23:12:59.605Z,12.80
2018-12-05T23:19:03.186Z,13.00
2018-12-05T23:25:06.912Z,13.60
2018-12-05T23:31:10.412Z,12.80
2018-12-05T23:37:13.916Z,12.80
2018-12-05T23:43:17.432Z,13.00
2018-12-05T23:49:21.210Z,12.50
2018-12-05T23:55:24.901Z,12.20
